sensor_id;sensor_type;location;lat;lon;timestamp;pressure;altitude;pressure_sealevel;temperature;humidity
65997;BME280;52765;52.258;21.052;2023-01-25T00:02:01;102735.34;;;2.09;92.28
65997;BME280;52765;52.258;21.052;2023-01-25T00:04:27;102745.72;;;2.18;92.67
65997;BME280;52765;52.258;21.052;2023-01-25T00:06:53;102746.88;;;2.08;90.86
65997;BME280;52765;52.258;21.052;2023-01-25T00:09:19;102746.81;;;2.11;90.58
65997;BME280;52765;52.258;21.052;2023-01-25T00:11:45;102746.53;;;2.21;90.65
65997;BME280;52765;52.258;21.052;2023-01-25T00:14:12;102752.56;;;2.27;90.40
65997;BME280;52765;52.258;21.052;2023-01-25T00:16:39;102746.59;;;2.18;90.93
65997;BME280;52765;52.258;21.052;2023-01-25T00:19:05;102744.97;;;2.13;91.19
65997;BME280;52765;52.258;21.052;2023-01-25T00:21:31;102751.03;;;2.18;91.80
65997;BME280;52765;52.258;21.052;2023-01-25T00:23:58;102739.53;;;2.17;90.12
65997;BME280;52765;52.258;21.052;2023-01-25T00:26:24;102738.59;;;1.87;90.14
65997;BME280;52765;52.258;21.052;2023-01-25T00:28:50;102735.56;;;1.68;92.40
65997;BME280;52765;52.258;21.052;2023-01-25T00:31:26;102723.78;;;1.78;91.79
65997;BME280;52765;52.258;21.052;2023-01-25T00:34:05;102727.59;;;1.68;91.02
65997;BME280;52765;52.258;21.052;2023-01-25T00:36:39;102732.75;;;1.74;91.13
65997;BME280;52765;52.258;21.052;2023-01-25T00:39:06;102730.06;;;1.41;92.32
65997;BME280;52765;52.258;21.052;2023-01-25T00:41:34;102734.53;;;1.39;93.21
65997;BME280;52765;52.258;21.052;2023-01-25T00:44:00;102727.38;;;1.43;94.08
65997;BME280;52765;52.258;21.052;2023-01-25T00:46:26;102730.63;;;1.54;92.74
65997;BME280;52765;52.258;21.052;2023-01-25T00:48:52;102725.22;;;1.57;92.64
65997;BME280;52765;52.258;21.052;2023-01-25T00:51:19;102720.63;;;1.64;91.71
65997;BME280;52765;52.258;21.052;2023-01-25T00:53:44;102707.09;;;1.40;93.14
65997;BME280;52765;52.258;21.052;2023-01-25T00:56:10;102716.88;;;1.38;93.73
65997;BME280;52765;52.258;21.052;2023-01-25T00:58:35;102707.75;;;1.48;94.24
65997;BME280;52765;52.258;21.052;2023-01-25T01:01:01;102716.16;;;1.64;93.31
65997;BME280;52765;52.258;21.052;2023-01-25T01:03:26;102706.31;;;1.68;90.12
65997;BME280;52765;52.258;21.052;2023-01-25T01:06:04;102711.47;;;1.74;90.28
65997;BME280;52765;52.258;21.052;2023-01-25T01:08:32;102703.50;;;1.74;89.19
65997;BME280;52765;52.258;21.052;2023-01-25T01:11:02;102704.34;;;1.76;88.89
65997;BME280;52765;52.258;21.052;2023-01-25T01:13:29;102708.94;;;1.70;88.81
65997;BME280;52765;52.258;21.052;2023-01-25T01:15:55;102703.84;;;1.62;89.39
65997;BME280;52765;52.258;21.052;2023-01-25T01:18:21;102706.59;;;1.59;89.58
65997;BME280;52765;52.258;21.052;2023-01-25T01:20:51;102702.84;;;1.66;89.99
65997;BME280;52765;52.258;21.052;2023-01-25T01:23:17;102700.22;;;1.64;89.52
65997;BME280;52765;52.258;21.052;2023-01-25T01:25:43;102702.06;;;1.62;89.85
65997;BME280;52765;52.258;21.052;2023-01-25T01:28:09;102710.22;;;1.55;88.33
65997;BME280;52765;52.258;21.052;2023-01-25T01:30:36;102708.94;;;1.37;89.48
65997;BME280;52765;52.258;21.052;2023-01-25T01:33:01;102712.75;;;1.25;90.28
65997;BME280;52765;52.258;21.052;2023-01-25T01:35:31;102713.16;;;1.09;90.69
65997;BME280;52765;52.258;21.052;2023-01-25T01:37:57;102706.09;;;1.10;92.08
65997;BME280;52765;52.258;21.052;2023-01-25T01:40:23;102699.84;;;1.11;90.45
65997;BME280;52765;52.258;21.052;2023-01-25T01:43:06;102697.22;;;1.09;90.87
65997;BME280;52765;52.258;21.052;2023-01-25T01:45:59;102700.00;;;1.05;90.46
65997;BME280;52765;52.258;21.052;2023-01-25T01:51:33;102691.28;;;1.34;89.06
65997;BME280;52765;52.258;21.052;2023-01-25T01:54:04;102694.59;;;1.44;88.63
65997;BME280;52765;52.258;21.052;2023-01-25T01:59:27;102696.69;;;1.31;89.02
65997;BME280;52765;52.258;21.052;2023-01-25T02:01:56;102698.50;;;1.29;88.89
65997;BME280;52765;52.258;21.052;2023-01-25T02:04:22;102700.34;;;1.27;89.53
65997;BME280;52765;52.258;21.052;2023-01-25T02:06:57;102697.50;;;1.33;88.21
65997;BME280;52765;52.258;21.052;2023-01-25T02:09:25;102691.28;;;1.34;88.22
65997;BME280;52765;52.258;21.052;2023-01-25T02:11:54;102689.09;;;1.17;89.81
65997;BME280;52765;52.258;21.052;2023-01-25T02:14:21;102682.44;;;0.99;91.01
65997;BME280;52765;52.258;21.052;2023-01-25T02:16:46;102669.28;;;0.95;90.19
65997;BME280;52765;52.258;21.052;2023-01-25T02:19:19;102676.31;;;0.97;91.41
65997;BME280;52765;52.258;21.052;2023-01-25T02:21:51;102675.06;;;1.12;91.10
65997;BME280;52765;52.258;21.052;2023-01-25T02:24:28;102670.41;;;1.20;89.73
65997;BME280;52765;52.258;21.052;2023-01-25T02:26:56;102663.22;;;1.25;89.60
65997;BME280;52765;52.258;21.052;2023-01-25T02:29:23;102665.75;;;1.30;89.35
65997;BME280;52765;52.258;21.052;2023-01-25T02:31:58;102662.72;;;1.09;89.74
65997;BME280;52765;52.258;21.052;2023-01-25T02:34:23;102668.56;;;0.88;90.54
65997;BME280;52765;52.258;21.052;2023-01-25T02:36:49;102655.19;;;0.92;91.30
65997;BME280;52765;52.258;21.052;2023-01-25T02:39:16;102669.22;;;0.98;91.19
65997;BME280;52765;52.258;21.052;2023-01-25T02:41:47;102676.09;;;1.05;90.08
65997;BME280;52765;52.258;21.052;2023-01-25T02:44:28;102660.28;;;1.02;90.59
65997;BME280;52765;52.258;21.052;2023-01-25T02:46:55;102657.66;;;1.00;90.06
65997;BME280;52765;52.258;21.052;2023-01-25T02:49:20;102652.47;;;0.96;90.14
65997;BME280;52765;52.258;21.052;2023-01-25T02:51:51;102659.66;;;0.90;91.38
65997;BME280;52765;52.258;21.052;2023-01-25T02:54:20;102654.22;;;0.97;91.42
65997;BME280;52765;52.258;21.052;2023-01-25T02:56:46;102662.00;;;1.03;91.15
65997;BME280;52765;52.258;21.052;2023-01-25T02:59:12;102654.56;;;1.17;90.33
65997;BME280;52765;52.258;21.052;2023-01-25T03:01:40;102646.78;;;1.09;90.39
65997;BME280;52765;52.258;21.052;2023-01-25T03:04:06;102646.31;;;0.94;90.61
65997;BME280;52765;52.258;21.052;2023-01-25T03:06:33;102646.34;;;0.92;91.19
65997;BME280;52765;52.258;21.052;2023-01-25T03:09:00;102635.09;;;0.82;90.51
65997;BME280;52765;52.258;21.052;2023-01-25T03:11:26;102622.44;;;0.94;90.81
65997;BME280;52765;52.258;21.052;2023-01-25T03:13:51;102623.22;;;0.97;89.16
65997;BME280;52765;52.258;21.052;2023-01-25T03:16:17;102601.53;;;0.80;90.28
65997;BME280;52765;52.258;21.052;2023-01-25T03:18:42;102619.22;;;0.81;90.67
65997;BME280;52765;52.258;21.052;2023-01-25T03:21:13;102614.00;;;0.76;90.91
65997;BME280;52765;52.258;21.052;2023-01-25T03:23:39;102614.66;;;0.86;89.75
65997;BME280;52765;52.258;21.052;2023-01-25T03:26:14;102617.28;;;0.87;90.28
65997;BME280;52765;52.258;21.052;2023-01-25T03:28:41;102610.91;;;0.93;91.00
65997;BME280;52765;52.258;21.052;2023-01-25T03:31:09;102605.44;;;1.01;89.99
65997;BME280;52765;52.258;21.052;2023-01-25T03:33:35;102605.44;;;1.01;90.23
65997;BME280;52765;52.258;21.052;2023-01-25T03:36:01;102593.06;;;1.00;89.68
65997;BME280;52765;52.258;21.052;2023-01-25T03:38:27;102607.94;;;1.07;90.17
65997;BME280;52765;52.258;21.052;2023-01-25T03:40:53;102620.25;;;1.09;90.51
65997;BME280;52765;52.258;21.052;2023-01-25T03:43:19;102611.34;;;1.12;89.47
65997;BME280;52765;52.258;21.052;2023-01-25T03:45:45;102603.47;;;1.07;88.15
65997;BME280;52765;52.258;21.052;2023-01-25T03:48:11;102602.66;;;1.05;89.00
65997;BME280;52765;52.258;21.052;2023-01-25T03:50:36;102606.09;;;1.09;89.78
65997;BME280;52765;52.258;21.052;2023-01-25T03:53:02;102592.59;;;0.84;89.09
65997;BME280;52765;52.258;21.052;2023-01-25T03:55:32;102595.75;;;0.64;91.16
65997;BME280;52765;52.258;21.052;2023-01-25T03:57:58;102596.72;;;0.60;90.95
65997;BME280;52765;52.258;21.052;2023-01-25T04:00:24;102594.94;;;0.62;90.69
65997;BME280;52765;52.258;21.052;2023-01-25T04:02:49;102593.97;;;0.64;91.01
65997;BME280;52765;52.258;21.052;2023-01-25T04:05:15;102607.81;;;0.77;90.75
65997;BME280;52765;52.258;21.052;2023-01-25T04:07:40;102593.38;;;0.87;89.99
65997;BME280;52765;52.258;21.052;2023-01-25T04:10:06;102575.38;;;1.00;89.54
65997;BME280;52765;52.258;21.052;2023-01-25T04:12:32;102580.41;;;1.09;89.26
65997;BME280;52765;52.258;21.052;2023-01-25T04:14:57;102567.19;;;1.08;88.26
65997;BME280;52765;52.258;21.052;2023-01-25T04:17:22;102579.72;;;1.03;88.28
65997;BME280;52765;52.258;21.052;2023-01-25T04:19:48;102575.38;;;1.00;89.08
65997;BME280;52765;52.258;21.052;2023-01-25T04:22:14;102586.78;;;1.04;87.89
65997;BME280;52765;52.258;21.052;2023-01-25T04:24:40;102587.38;;;0.81;87.98
65997;BME280;52765;52.258;21.052;2023-01-25T04:27:06;102578.09;;;0.63;88.40
65997;BME280;52765;52.258;21.052;2023-01-25T04:29:31;102573.75;;;0.60;87.88
65997;BME280;52765;52.258;21.052;2023-01-25T04:31:56;102566.59;;;0.26;89.85
65997;BME280;52765;52.258;21.052;2023-01-25T04:34:22;102571.13;;;0.21;91.16
65997;BME280;52765;52.258;21.052;2023-01-25T04:36:48;102570.84;;;0.33;91.06
65997;BME280;52765;52.258;21.052;2023-01-25T04:39:14;102565.34;;;0.41;90.80
65997;BME280;52765;52.258;21.052;2023-01-25T04:41:39;102574.06;;;0.46;90.63
65997;BME280;52765;52.258;21.052;2023-01-25T04:44:05;102566.59;;;0.62;91.01
65997;BME280;52765;52.258;21.052;2023-01-25T04:46:30;102567.25;;;0.72;89.65
65997;BME280;52765;52.258;21.052;2023-01-25T04:48:55;102565.44;;;0.74;90.08
65997;BME280;52765;52.258;21.052;2023-01-25T04:51:21;102574.31;;;0.71;90.79
65997;BME280;52765;52.258;21.052;2023-01-25T04:53:46;102565.66;;;0.65;91.43
65997;BME280;52765;52.258;21.052;2023-01-25T04:56:11;102571.88;;;0.64;92.25
65997;BME280;52765;52.258;21.052;2023-01-25T04:58:39;102584.00;;;0.36;92.72
65997;BME280;52765;52.258;21.052;2023-01-25T05:01:05;102574.53;;;0.26;94.76
65997;BME280;52765;52.258;21.052;2023-01-25T05:03:34;102569.03;;;0.35;94.44
65997;BME280;52765;52.258;21.052;2023-01-25T05:05:59;102573.34;;;0.40;94.05
65997;BME280;52765;52.258;21.052;2023-01-25T05:08:25;102580.22;;;0.48;94.28
65997;BME280;52765;52.258;21.052;2023-01-25T05:10:51;102570.84;;;0.33;93.43
65997;BME280;52765;52.258;21.052;2023-01-25T05:13:16;102572.47;;;0.39;92.64
65997;BME280;52765;52.258;21.052;2023-01-25T05:15:41;102569.75;;;0.42;91.88
65997;BME280;52765;52.258;21.052;2023-01-25T05:18:07;102569.44;;;0.18;93.66
65997;BME280;52765;52.258;21.052;2023-01-25T05:20:32;102549.50;;;0.01;95.20
65997;BME280;52765;52.258;21.052;2023-01-25T05:22:58;102554.59;;;0.10;95.36
65997;BME280;52765;52.258;21.052;2023-01-25T05:25:23;102561.09;;;-0.05;95.55
65997;BME280;52765;52.258;21.052;2023-01-25T05:28:08;102567.28;;;-0.03;93.17
65997;BME280;52765;52.258;21.052;2023-01-25T05:30:33;102565.81;;;-0.18;94.13
65997;BME280;52765;52.258;21.052;2023-01-25T05:32:59;102556.59;;;0.00;95.30
65997;BME280;52765;52.258;21.052;2023-01-25T05:35:25;102565.41;;;0.01;93.32
65997;BME280;52765;52.258;21.052;2023-01-25T05:37:55;102568.34;;;-0.13;94.73
65997;BME280;52765;52.258;21.052;2023-01-25T05:40:20;102566.03;;;-0.29;95.66
65997;BME280;52765;52.258;21.052;2023-01-25T05:42:54;102566.19;;;-0.35;95.37
65997;BME280;52765;52.258;21.052;2023-01-25T05:45:21;102549.03;;;-0.59;96.97
65997;BME280;52765;52.258;21.052;2023-01-25T05:47:51;102550.66;;;-0.53;97.00
65997;BME280;52765;52.258;21.052;2023-01-25T05:50:20;102553.13;;;-0.44;96.66
65997;BME280;52765;52.258;21.052;2023-01-25T05:52:49;102551.25;;;-0.39;95.75
65997;BME280;52765;52.258;21.052;2023-01-25T05:55:15;102557.19;;;-0.28;96.66
65997;BME280;52765;52.258;21.052;2023-01-25T05:57:40;102552.66;;;-0.21;96.26
65997;BME280;52765;52.258;21.052;2023-01-25T06:00:08;102550.66;;;-0.11;95.58
65997;BME280;52765;52.258;21.052;2023-01-25T06:02:34;102541.09;;;-0.19;93.41
65997;BME280;52765;52.258;21.052;2023-01-25T06:04:59;102543.28;;;-0.38;94.79
65997;BME280;52765;52.258;21.052;2023-01-25T06:07:25;102555.50;;;-0.32;94.86
65997;BME280;52765;52.258;21.052;2023-01-25T06:09:50;102543.34;;;-0.41;95.73
65997;BME280;52765;52.258;21.052;2023-01-25T06:12:19;102526.72;;;-0.47;95.51
65997;BME280;52765;52.258;21.052;2023-01-25T06:14:45;102530.25;;;-0.48;96.75
65997;BME280;52765;52.258;21.052;2023-01-25T06:17:14;102538.13;;;-0.45;96.00
65997;BME280;52765;52.258;21.052;2023-01-25T06:19:40;102543.25;;;-0.36;96.59
65997;BME280;52765;52.258;21.052;2023-01-25T06:22:06;102530.63;;;-0.23;93.99
65997;BME280;52765;52.258;21.052;2023-01-25T06:24:33;102538.47;;;-0.20;94.60
65997;BME280;52765;52.258;21.052;2023-01-25T06:26:59;102536.56;;;-0.13;93.73
65997;BME280;52765;52.258;21.052;2023-01-25T06:29:24;102534.06;;;-0.20;93.11
65997;BME280;52765;52.258;21.052;2023-01-25T06:31:49;102536.72;;;-0.20;92.70
65997;BME280;52765;52.258;21.052;2023-01-25T06:34:15;102548.16;;;-0.17;92.91
65997;BME280;52765;52.258;21.052;2023-01-25T06:36:41;102534.06;;;-0.20;94.35
65997;BME280;52765;52.258;21.052;2023-01-25T06:39:06;102551.59;;;-0.14;93.55
65997;BME280;52765;52.258;21.052;2023-01-25T06:41:32;102539.44;;;-0.23;94.79
65997;BME280;52765;52.258;21.052;2023-01-25T06:43:57;102530.34;;;-0.11;94.01
65997;BME280;52765;52.258;21.052;2023-01-25T06:46:23;102531.19;;;-0.10;93.72
65997;BME280;52765;52.258;21.052;2023-01-25T06:48:48;102524.16;;;-0.11;93.27
65997;BME280;52765;52.258;21.052;2023-01-25T06:51:14;102533.13;;;-0.19;94.63
65997;BME280;52765;52.258;21.052;2023-01-25T06:53:42;102532.81;;;-0.03;93.48
65997;BME280;52765;52.258;21.052;2023-01-25T06:56:12;102533.75;;;-0.06;92.74
65997;BME280;52765;52.258;21.052;2023-01-25T06:58:39;102515.31;;;-0.12;93.04
65997;BME280;52765;52.258;21.052;2023-01-25T07:03:41;102523.91;;;-0.01;93.49
65997;BME280;52765;52.258;21.052;2023-01-25T07:06:09;102522.25;;;-0.05;92.93
65997;BME280;52765;52.258;21.052;2023-01-25T07:08:35;102516.38;;;-0.19;94.29
65997;BME280;52765;52.258;21.052;2023-01-25T07:11:04;102514.34;;;-0.06;93.25
65997;BME280;52765;52.258;21.052;2023-01-25T07:13:31;102509.09;;;-0.09;93.00
65997;BME280;52765;52.258;21.052;2023-01-25T07:16:00;102504.50;;;-0.01;93.75
65997;BME280;52765;52.258;21.052;2023-01-25T07:18:27;102499.94;;;0.06;94.20
65997;BME280;52765;52.258;21.052;2023-01-25T07:20:54;102502.81;;;-0.05;93.34
65997;BME280;52765;52.258;21.052;2023-01-25T07:23:20;102504.19;;;-0.26;94.58
65997;BME280;52765;52.258;21.052;2023-01-25T07:25:47;102501.47;;;-0.23;95.37
65997;BME280;52765;52.258;21.052;2023-01-25T07:28:13;102494.41;;;-0.23;95.20
65997;BME280;52765;52.258;21.052;2023-01-25T07:30:40;102491.59;;;-0.15;94.69
65997;BME280;52765;52.258;21.052;2023-01-25T07:33:06;102496.81;;;-0.13;94.27
65997;BME280;52765;52.258;21.052;2023-01-25T07:35:32;102503.13;;;-0.19;94.51
65997;BME280;52765;52.258;21.052;2023-01-25T07:37:57;102497.59;;;-0.08;93.42
65997;BME280;52765;52.258;21.052;2023-01-25T07:40:23;102501.84;;;-0.01;92.88
65997;BME280;52765;52.258;21.052;2023-01-25T07:42:50;102492.88;;;0.05;91.99
65997;BME280;52765;52.258;21.052;2023-01-25T07:45:16;102492.94;;;0.02;92.73
65997;BME280;52765;52.258;21.052;2023-01-25T07:47:41;102485.41;;;-0.17;93.12
65997;BME280;52765;52.258;21.052;2023-01-25T07:50:07;102486.28;;;-0.15;93.61
65997;BME280;52765;52.258;21.052;2023-01-25T07:52:33;102488.69;;;-0.06;94.75
65997;BME280;52765;52.258;21.052;2023-01-25T07:54:58;102484.13;;;0.01;94.13
65997;BME280;52765;52.258;21.052;2023-01-25T07:57:24;102495.59;;;0.02;92.82
65997;BME280;52765;52.258;21.052;2023-01-25T07:59:50;102491.97;;;0.06;92.92
65997;BME280;52765;52.258;21.052;2023-01-25T08:02:15;102492.25;;;-0.07;91.22
65997;BME280;52765;52.258;21.052;2023-01-25T08:04:41;102486.91;;;-0.05;92.53
65997;BME280;52765;52.258;21.052;2023-01-25T08:07:07;102496.44;;;0.04;92.13
65997;BME280;52765;52.258;21.052;2023-01-25T08:09:33;102478.78;;;0.03;90.55
65997;BME280;52765;52.258;21.052;2023-01-25T08:11:58;102481.31;;;0.09;90.91
65997;BME280;52765;52.258;21.052;2023-01-25T08:14:24;102480.22;;;0.16;90.11
65997;BME280;52765;52.258;21.052;2023-01-25T08:16:49;102486.50;;;0.13;89.39
65997;BME280;52765;52.258;21.052;2023-01-25T08:19:14;102481.03;;;0.20;89.56
65997;BME280;52765;52.258;21.052;2023-01-25T08:21:40;102484.44;;;0.25;88.27
65997;BME280;52765;52.258;21.052;2023-01-25T08:24:07;102475.50;;;0.29;89.33
65997;BME280;52765;52.258;21.052;2023-01-25T08:26:34;102473.75;;;0.28;88.53
65997;BME280;52765;52.258;21.052;2023-01-25T08:29:00;102478.13;;;0.30;88.74
65997;BME280;52765;52.258;21.052;2023-01-25T08:31:28;102477.91;;;0.38;88.44
65997;BME280;52765;52.258;21.052;2023-01-25T08:33:55;102462.75;;;0.43;87.86
65997;BME280;52765;52.258;21.052;2023-01-25T08:36:20;102457.91;;;0.25;88.68
65997;BME280;52765;52.258;21.052;2023-01-25T08:38:52;102467.47;;;0.32;89.45
65997;BME280;52765;52.258;21.052;2023-01-25T08:41:19;102451.56;;;0.32;88.72
65997;BME280;52765;52.258;21.052;2023-01-25T08:43:45;102457.91;;;0.25;88.26
65997;BME280;52765;52.258;21.052;2023-01-25T08:46:12;102466.97;;;0.16;89.47
65997;BME280;52765;52.258;21.052;2023-01-25T08:48:38;102455.72;;;0.06;89.24
65997;BME280;52765;52.258;21.052;2023-01-25T08:51:07;102461.31;;;-0.05;90.21
65997;BME280;52765;52.258;21.052;2023-01-25T08:53:33;102460.31;;;-0.01;90.36
65997;BME280;52765;52.258;21.052;2023-01-25T08:56:06;102450.25;;;0.14;89.90
65997;BME280;52765;52.258;21.052;2023-01-25T08:58:32;102436.72;;;0.25;88.98
65997;BME280;52765;52.258;21.052;2023-01-25T09:01:02;102451.56;;;0.32;88.86
65997;BME280;52765;52.258;21.052;2023-01-25T09:03:29;102438.53;;;0.23;86.95
65997;BME280;52765;52.258;21.052;2023-01-25T09:05:54;102452.06;;;0.12;87.58
65997;BME280;52765;52.258;21.052;2023-01-25T09:08:20;102444.72;;;-0.13;89.75
65997;BME280;52765;52.258;21.052;2023-01-25T09:10:45;102455.25;;;-0.10;90.75
65997;BME280;52765;52.258;21.052;2023-01-25T09:13:11;102441.28;;;-0.16;90.20
65997;BME280;52765;52.258;21.052;2023-01-25T09:15:37;102439.41;;;-0.13;90.43
65997;BME280;52765;52.258;21.052;2023-01-25T09:18:02;102441.28;;;-0.16;90.26
65997;BME280;52765;52.258;21.052;2023-01-25T09:20:28;102435.81;;;-0.10;90.65
65997;BME280;52765;52.258;21.052;2023-01-25T09:22:54;102433.50;;;-0.24;90.28
65997;BME280;52765;52.258;21.052;2023-01-25T09:25:20;102434.31;;;-0.22;91.56
65997;BME280;52765;52.258;21.052;2023-01-25T09:27:49;102427.81;;;-0.09;91.11
65997;BME280;52765;52.258;21.052;2023-01-25T09:30:18;102434.56;;;0.05;90.47
65997;BME280;52765;52.258;21.052;2023-01-25T09:32:43;102418.22;;;0.22;89.39
65997;BME280;52765;52.258;21.052;2023-01-25T09:35:09;102426.19;;;0.22;88.76
65997;BME280;52765;52.258;21.052;2023-01-25T09:37:34;102407.44;;;0.29;88.55
65997;BME280;52765;52.258;21.052;2023-01-25T09:40:00;102404.44;;;0.09;87.20
65997;BME280;52765;52.258;21.052;2023-01-25T09:42:49;102400.06;;;0.06;88.61
65997;BME280;52765;52.258;21.052;2023-01-25T09:45:31;102393.66;;;0.15;88.20
65997;BME280;52765;52.258;21.052;2023-01-25T09:48:15;102389.31;;;0.12;88.04
65997;BME280;52765;52.258;21.052;2023-01-25T09:51:00;102389.97;;;0.22;88.31
65997;BME280;52765;52.258;21.052;2023-01-25T09:53:40;102386.19;;;0.31;88.15
65997;BME280;52765;52.258;21.052;2023-01-25T09:58:45;102394.63;;;0.47;86.76
65997;BME280;52765;52.258;21.052;2023-01-25T10:01:17;102385.78;;;0.46;85.62
65997;BME280;52765;52.258;21.052;2023-01-25T10:06:22;102383.34;;;0.39;85.71
65997;BME280;52765;52.258;21.052;2023-01-25T10:11:38;102377.63;;;0.54;86.48
65997;BME280;52765;52.258;21.052;2023-01-25T10:14:12;102357.97;;;0.61;85.32
65997;BME280;52765;52.258;21.052;2023-01-25T10:22:12;102365.91;;;0.61;85.77
65997;BME280;52765;52.258;21.052;2023-01-25T10:30:28;102352.44;;;0.69;86.20
65997;BME280;52765;52.258;21.052;2023-01-25T10:33:08;102340.13;;;0.66;85.41
65997;BME280;52765;52.258;21.052;2023-01-25T10:35:37;102328.53;;;0.70;84.71
65997;BME280;52765;52.258;21.052;2023-01-25T10:38:15;102324.03;;;0.72;85.67
65997;BME280;52765;52.258;21.052;2023-01-25T10:41:06;102326.34;;;0.83;85.69
65997;BME280;52765;52.258;21.052;2023-01-25T10:43:33;102318.50;;;0.80;85.21
65997;BME280;52765;52.258;21.052;2023-01-25T10:46:00;102318.59;;;0.77;84.80
65997;BME280;52765;52.258;21.052;2023-01-25T10:48:31;102313.03;;;0.85;85.49
65997;BME280;52765;52.258;21.052;2023-01-25T10:50:58;102319.34;;;0.82;85.25
65997;BME280;52765;52.258;21.052;2023-01-25T10:58:40;102314.78;;;0.86;84.36
65997;BME280;52765;52.258;21.052;2023-01-25T11:01:11;102321.16;;;0.80;84.84
65997;BME280;52765;52.258;21.052;2023-01-25T11:03:42;102319.75;;;0.68;85.07
65997;BME280;52765;52.258;21.052;2023-01-25T11:06:10;102317.03;;;0.07;89.16
65997;BME280;52765;52.258;21.052;2023-01-25T11:08:38;102300.06;;;-0.20;90.51
65997;BME280;52765;52.258;21.052;2023-01-25T11:13:41;102292.25;;;0.08;91.22
65997;BME280;52765;52.258;21.052;2023-01-25T11:16:30;102284.00;;;0.19;90.14
65997;BME280;52765;52.258;21.052;2023-01-25T11:18:57;102286.19;;;0.36;89.56
65997;BME280;52765;52.258;21.052;2023-01-25T11:21:26;102277.09;;;0.45;88.68
65997;BME280;52765;52.258;21.052;2023-01-25T11:26:37;102269.00;;;0.49;87.99
65997;BME280;52765;52.258;21.052;2023-01-25T11:29:10;102262.59;;;0.57;87.86
65997;BME280;52765;52.258;21.052;2023-01-25T11:31:36;102243.13;;;0.58;87.89
65997;BME280;52765;52.258;21.052;2023-01-25T11:34:04;102258.78;;;0.67;86.91
65997;BME280;52765;52.258;21.052;2023-01-25T11:39:16;102257.00;;;0.67;87.72
65997;BME280;52765;52.258;21.052;2023-01-25T11:55:36;102230.41;;;0.69;86.50
65997;BME280;52765;52.258;21.052;2023-01-25T11:58:16;102233.13;;;0.67;88.09
65997;BME280;52765;52.258;21.052;2023-01-25T12:01:15;102224.28;;;0.67;87.01
65997;BME280;52765;52.258;21.052;2023-01-25T12:06:20;102219.75;;;0.70;87.31
65997;BME280;52765;52.258;21.052;2023-01-25T12:09:15;102217.69;;;0.80;87.51
65997;BME280;52765;52.258;21.052;2023-01-25T12:12:05;102216.22;;;0.70;87.21
65997;BME280;52765;52.258;21.052;2023-01-25T12:20:04;102201.59;;;0.57;87.38
65997;BME280;52765;52.258;21.052;2023-01-25T12:28:16;102192.25;;;0.73;88.37
65997;BME280;52765;52.258;21.052;2023-01-25T12:33:14;102183.25;;;0.79;87.23
65997;BME280;52765;52.258;21.052;2023-01-25T12:35:48;102188.69;;;0.74;86.88
65997;BME280;52765;52.258;21.052;2023-01-25T12:38:26;102195.94;;;0.69;87.96
65997;BME280;52765;52.258;21.052;2023-01-25T12:41:19;102190.63;;;0.69;87.93
65997;BME280;52765;52.258;21.052;2023-01-25T12:46:26;102181.13;;;0.62;89.46
65997;BME280;52765;52.258;21.052;2023-01-25T12:48:55;102181.31;;;0.55;88.50
65997;BME280;52765;52.258;21.052;2023-01-25T12:51:28;102174.09;;;0.61;88.70
65997;BME280;52765;52.258;21.052;2023-01-25T12:53:57;102177.09;;;0.77;87.84
65997;BME280;52765;52.258;21.052;2023-01-25T12:56:44;102174.44;;;0.77;88.03
65997;BME280;52765;52.258;21.052;2023-01-25T13:01:57;102170.22;;;0.71;87.21
65997;BME280;52765;52.258;21.052;2023-01-25T13:04:41;102169.94;;;0.80;87.65
65997;BME280;52765;52.258;21.052;2023-01-25T13:07:36;102169.53;;;0.92;86.76
65997;BME280;52765;52.258;21.052;2023-01-25T13:10:19;102162.28;;;0.98;87.02
65997;BME280;52765;52.258;21.052;2023-01-25T13:12:55;102156.16;;;0.96;86.79
65997;BME280;52765;52.258;21.052;2023-01-25T13:15:43;102152.75;;;0.92;87.04
65997;BME280;52765;52.258;21.052;2023-01-25T13:20:55;102148.25;;;0.94;86.24
65997;BME280;52765;52.258;21.052;2023-01-25T13:28:55;102136.72;;;0.68;86.76
65997;BME280;52765;52.258;21.052;2023-01-25T13:34:07;102122.56;;;0.68;87.52
65997;BME280;52765;52.258;21.052;2023-01-25T13:36:43;102116.19;;;0.73;88.28
65997;BME280;52765;52.258;21.052;2023-01-25T13:42:02;102123.59;;;0.90;87.99
65997;BME280;52765;52.258;21.052;2023-01-25T13:44:30;102121.75;;;0.92;87.62
65997;BME280;52765;52.258;21.052;2023-01-25T13:47:06;102118.09;;;0.97;87.52
65997;BME280;52765;52.258;21.052;2023-01-25T13:49:46;102113.78;;;0.92;87.69
65997;BME280;52765;52.258;21.052;2023-01-25T13:52:15;102119.00;;;0.96;88.37
65997;BME280;52765;52.258;21.052;2023-01-25T13:54:45;102108.44;;;0.94;87.49
65997;BME280;52765;52.258;21.052;2023-01-25T13:57:13;102107.69;;;0.90;87.77
65997;BME280;52765;52.258;21.052;2023-01-25T13:59:39;102098.53;;;0.72;88.33
65997;BME280;52765;52.258;21.052;2023-01-25T14:02:19;102094.00;;;0.76;89.19
65997;BME280;52765;52.258;21.052;2023-01-25T14:04:47;102086.19;;;0.71;88.76
65997;BME280;52765;52.258;21.052;2023-01-25T14:07:16;102087.03;;;0.73;89.77
65997;BME280;52765;52.258;21.052;2023-01-25T14:09:43;102085.88;;;0.81;89.84
65997;BME280;52765;52.258;21.052;2023-01-25T14:12:10;102085.66;;;0.88;89.43
65997;BME280;52765;52.258;21.052;2023-01-25T14:14:37;102083.81;;;0.90;89.31
65997;BME280;52765;52.258;21.052;2023-01-25T14:17:15;102089.56;;;1.03;89.15
65997;BME280;52765;52.258;21.052;2023-01-25T14:20:08;102095.56;;;1.08;88.07
65997;BME280;52765;52.258;21.052;2023-01-25T14:22:46;102079.31;;;0.92;87.43
65997;BME280;52765;52.258;21.052;2023-01-25T14:25:17;102083.09;;;0.85;89.95
65997;BME280;52765;52.258;21.052;2023-01-25T14:27:56;102074.19;;;0.86;89.95